createdAt,value
2017-11-19T00:00:50.444Z,99.99
2017-11-19T00:01:50.436Z,99.99
2017-11-19T00:02:50.424Z,99.99
2017-11-19T00:03:50.418Z,99.99
2017-11-19T00:04:50.414Z,99.99
2017-11-19T00:05:50.403Z,99.99
2017-11-19T00:06:50.400Z,99.99
2017-11-19T00:07:50.398Z,99.99
2017-11-19T00:08:50.385Z,99.99
2017-11-19T00:09:50.378Z,99.99
2017-11-19T00:10:50.369Z,99.99
2017-11-19T00:11:50.364Z,99.99
2017-11-19T00:12:50.357Z,99.99
2017-11-19T00:13:50.349Z,99.99
2017-11-19T00:14:50.338Z,99.99
2017-11-19T00:15:50.330Z,99.99
2017-11-19T00:16:50.324Z,99.99
2017-11-19T00:17:50.316Z,99.99
2017-11-19T00:18:50.309Z,99.99
2017-11-19T00:19:50.302Z,99.99
2017-11-19T00:20:50.296Z,99.99
2017-11-19T00:21:50.315Z,99.99
2017-11-19T00:22:50.285Z,99.99
2017-11-19T00:23:50.278Z,99.99
2017-11-19T00:24:50.271Z,99.99
2017-11-19T00:25:50.260Z,99.99
2017-11-19T00:26:50.255Z,99.99
2017-11-19T00:27:50.247Z,99.99
2017-11-19T00:28:50.242Z,99.99
2017-11-19T00:29:50.235Z,99.99
2017-11-19T00:30:50.221Z,99.99
2017-11-19T00:31:50.214Z,99.99
2017-11-19T00:32:50.208Z,99.99
2017-11-19T00:33:50.201Z,99.99
2017-11-19T00:34:50.193Z,99.99
2017-11-19T00:35:50.186Z,99.99
2017-11-19T00:36:50.179Z,99.99
2017-11-19T00:37:50.170Z,99.99
2017-11-19T00:38:50.168Z,99.99
2017-11-19T00:39:50.160Z,99.99
2017-11-19T00:40:50.162Z,99.99
2017-11-19T00:41:50.146Z,99.99
2017-11-19T00:42:50.140Z,99.99
2017-11-19T00:43:50.133Z,99.99
2017-11-19T00:44:50.124Z,99.99
2017-11-19T00:45:50.116Z,99.99
2017-11-19T00:46:50.105Z,99.99
2017-11-19T00:47:50.100Z,99.99
2017-11-19T00:48:50.091Z,99.99
2017-11-19T00:49:50.083Z,99.99
2017-11-19T00:50:50.076Z,99.99
2017-11-19T00:51:50.069Z,99.99
2017-11-19T00:52:50.063Z,99.99
2017-11-19T00:53:50.056Z,99.99
2017-11-19T00:54:50.052Z,99.99
2017-11-19T00:55:50.044Z,99.99
2017-11-19T00:56:50.040Z,99.99
2017-11-19T00:57:50.031Z,99.99
2017-11-19T00:58:50.023Z,99.99
2017-11-19T00:59:50.017Z,99.99
2017-11-19T01:00:50.018Z,99.99
2017-11-19T01:01:50.002Z,99.99
2017-11-19T01:02:49.990Z,99.99
2017-11-19T01:03:49.986Z,99.99
2017-11-19T01:04:49.975Z,99.99
2017-11-19T01:05:49.967Z,99.99
2017-11-19T01:06:49.966Z,99.99
2017-11-19T01:07:49.958Z,99.99
2017-11-19T01:08:49.951Z,99.99
2017-11-19T01:09:49.942Z,99.99
2017-11-19T01:10:49.932Z,99.99
2017-11-19T01:11:49.924Z,99.99
2017-11-19T01:12:49.916Z,99.99
2017-11-19T01:13:49.910Z,99.99
2017-11-19T01:14:49.902Z,99.99
2017-11-19T01:15:49.895Z,99.99
2017-11-19T01:16:49.889Z,99.99
2017-11-19T01:17:49.905Z,99.99
2017-11-19T01:18:49.876Z,99.99
2017-11-19T01:19:49.870Z,99.99
2017-11-19T01:20:49.862Z,99.99
2017-11-19T01:21:49.856Z,99.99
2017-11-19T01:22:49.848Z,99.99
2017-11-19T01:23:49.841Z,99.99
2017-11-19T01:24:49.834Z,99.99
2017-11-19T01:25:49.825Z,99.99
2017-11-19T01:26:49.814Z,99.99
2017-11-19T01:27:49.807Z,99.99
2017-11-19T01:28:49.801Z,99.99
2017-11-19T01:29:49.792Z,99.99
2017-11-19T01:30:49.784Z,99.99
2017-11-19T01:31:49.776Z,99.99
2017-11-19T01:32:49.770Z,99.99
2017-11-19T01:33:49.768Z,99.99
2017-11-19T01:34:49.759Z,99.99
2017-11-19T01:35:49.752Z,99.99
2017-11-19T01:36:49.748Z,99.99
2017-11-19T01:37:49.737Z,99.99
2017-11-19T01:38:49.732Z,99.99
2017-11-19T01:39:49.722Z,99.99
2017-11-19T01:40:49.716Z,99.99
2017-11-19T01:41:49.707Z,99.99
2017-11-19T01:42:49.695Z,99.99
2017-11-19T01:43:49.696Z,99.99
2017-11-19T01:44:49.690Z,99.99
2017-11-19T01:45:49.676Z,99.99
2017-11-19T01:46:49.666Z,99.99
2017-11-19T01:47:49.660Z,99.99
2017-11-19T01:48:49.652Z,99.99
2017-11-19T01:49:49.643Z,99.99
2017-11-19T01:50:49.642Z,99.99
2017-11-19T01:51:49.633Z,99.99
2017-11-19T01:52:49.626Z,99.99
2017-11-19T01:53:49.618Z,99.99
2017-11-19T01:54:49.611Z,99.99
2017-11-19T01:55:49.605Z,99.99
2017-11-19T01:56:49.598Z,99.99
2017-11-19T01:57:49.588Z,99.99
2017-11-19T01:58:49.578Z,99.99
2017-11-19T01:59:49.570Z,99.99
2017-11-19T02:00:49.562Z,99.99
2017-11-19T02:01:49.563Z,99.99
2017-11-19T02:02:49.565Z,99.99
2017-11-19T02:03:49.541Z,99.99
2017-11-19T02:04:49.533Z,99.99
2017-11-19T02:05:49.530Z,99.99
2017-11-19T02:06:49.522Z,99.99
2017-11-19T02:07:49.513Z,99.99
2017-11-19T02:08:49.506Z,99.99
2017-11-19T02:09:49.499Z,99.99
2017-11-19T02:10:49.488Z,99.99
2017-11-19T02:11:49.481Z,99.99
2017-11-19T02:12:49.475Z,99.99
2017-11-19T02:13:49.464Z,99.99
2017-11-19T02:14:49.466Z,99.99
2017-11-19T02:15:49.455Z,99.99
2017-11-19T02:16:49.447Z,99.99
2017-11-19T02:17:49.439Z,99.99
2017-11-19T02:18:49.431Z,99.99
2017-11-19T02:19:49.424Z,99.99
2017-11-19T02:20:49.422Z,99.99
2017-11-19T02:21:49.408Z,99.99
2017-11-19T02:22:49.398Z,99.99
2017-11-19T02:23:49.391Z,99.99
2017-11-19T02:24:49.383Z,99.99
2017-11-19T02:25:49.376Z,99.99
2017-11-19T02:26:49.368Z,99.99
2017-11-19T02:27:49.363Z,99.99
2017-11-19T02:28:49.354Z,99.99
2017-11-19T02:29:49.345Z,99.99
2017-11-19T02:30:49.344Z,99.99
2017-11-19T02:31:49.339Z,99.99
2017-11-19T02:32:49.330Z,99.99
2017-11-19T02:33:49.318Z,99.99
2017-11-19T02:34:49.313Z,99.99
2017-11-19T02:35:49.305Z,99.99
2017-11-19T02:36:49.297Z,99.99
2017-11-19T02:37:49.291Z,99.99
2017-11-19T02:38:49.277Z,99.99
2017-11-19T02:39:49.279Z,99.99
2017-11-19T02:40:49.263Z,99.99
2017-11-19T02:41:49.254Z,99.99
2017-11-19T02:42:49.249Z,99.99
2017-11-19T02:43:49.242Z,99.99
2017-11-19T02:44:49.232Z,99.99
2017-11-19T02:45:49.225Z,99.99
2017-11-19T02:46:49.220Z,99.99
2017-11-19T02:47:49.212Z,99.99
2017-11-19T02:48:49.217Z,99.99
2017-11-19T02:49:49.195Z,99.99
2017-11-19T02:50:49.191Z,99.99
2017-11-19T02:51:49.182Z,99.99
2017-11-19T02:52:49.175Z,99.99
2017-11-19T02:53:49.171Z,99.99
2017-11-19T02:54:49.156Z,99.99
2017-11-19T02:55:49.147Z,99.99
2017-11-19T02:56:49.140Z,99.99
2017-11-19T02:57:49.130Z,99.99
2017-11-19T02:58:49.123Z,99.99
2017-11-19T02:59:49.116Z,99.99
2017-11-19T03:00:49.107Z,99.99
2017-11-19T03:01:49.100Z,99.99
2017-11-19T03:02:49.096Z,99.99
2017-11-19T03:03:49.088Z,99.99
2017-11-19T03:04:49.082Z,99.99
2017-11-19T03:05:49.073Z,99.99
2017-11-19T03:06:49.065Z,99.99
2017-11-19T03:07:49.057Z,99.99
2017-11-19T03:08:49.051Z,99.99
2017-11-19T03:09:49.040Z,99.99
2017-11-19T03:10:49.030Z,99.99
2017-11-19T03:11:49.022Z,99.99
2017-11-19T03:12:49.013Z,99.99
2017-11-19T03:13:49.005Z,99.99
2017-11-19T03:14:49.002Z,99.99
2017-11-19T03:15:48.995Z,99.99
2017-11-19T03:16:48.985Z,99.99
2017-11-19T03:17:48.977Z,99.99
2017-11-19T03:18:48.965Z,99.99
2017-11-19T03:19:48.957Z,99.99
2017-11-19T03:20:48.949Z,99.99
2017-11-19T03:21:48.940Z,99.99
2017-11-19T03:22:48.932Z,99.99
2017-11-19T03:23:48.923Z,99.99
2017-11-19T03:24:48.916Z,99.99
2017-11-19T03:25:48.905Z,99.99
2017-11-19T03:26:48.901Z,99.99
2017-11-19T03:27:48.896Z,99.99
2017-11-19T03:28:48.890Z,99.99
2017-11-19T03:29:48.878Z,99.99
2017-11-19T03:30:48.873Z,99.99
2017-11-19T03:31:48.862Z,99.99
2017-11-19T03:32:48.856Z,99.99
2017-11-19T03:33:48.844Z,99.99
2017-11-19T03:34:48.831Z,99.99
2017-11-19T03:35:48.823Z,99.99
2017-11-19T03:36:48.813Z,99.99
2017-11-19T03:37:48.805Z,99.99
2017-11-19T03:38:48.802Z,99.99
2017-11-19T03:39:48.788Z,99.99
2017-11-19T03:40:48.780Z,99.99
2017-11-19T03:41:48.769Z,99.99
2017-11-19T03:42:48.766Z,99.99
2017-11-19T03:43:48.756Z,99.99
2017-11-19T03:44:48.749Z,99.99
2017-11-19T03:45:48.738Z,99.99
2017-11-19T03:46:48.730Z,99.99
2017-11-19T03:47:48.721Z,99.99
2017-11-19T03:48:48.713Z,99.99
2017-11-19T03:49:48.705Z,99.99
2017-11-19T03:50:48.692Z,99.99
2017-11-19T03:51:48.683Z,99.99
2017-11-19T03:52:48.674Z,99.99
2017-11-19T03:53:48.665Z,99.99
2017-11-19T03:54:48.654Z,99.99
2017-11-19T03:55:48.647Z,99.99
2017-11-19T03:56:48.638Z,99.99
2017-11-19T03:57:48.628Z,99.99
2017-11-19T03:58:48.631Z,99.99
2017-11-19T03:59:48.615Z,99.99
2017-11-19T04:00:48.605Z,99.99
2017-11-19T04:01:48.595Z,99.99
2017-11-19T04:02:48.587Z,99.99
2017-11-19T04:03:48.579Z,99.99
2017-11-19T04:04:48.572Z,99.99
2017-11-19T04:05:48.560Z,99.99
2017-11-19T04:06:48.548Z,99.99
2017-11-19T04:07:48.537Z,99.99
2017-11-19T04:08:48.530Z,99.99
2017-11-19T04:09:48.519Z,99.99
2017-11-19T04:10:48.511Z,99.99
2017-11-19T04:11:48.502Z,99.99
2017-11-19T04:12:48.506Z,99.99
2017-11-19T04:13:48.483Z,99.99
2017-11-19T04:14:48.478Z,99.99
2017-11-19T04:15:48.471Z,99.99
2017-11-19T04:16:48.461Z,99.99
2017-11-19T04:17:48.451Z,99.99
2017-11-19T04:18:48.453Z,99.99
2017-11-19T04:19:48.434Z,99.99
2017-11-19T04:20:48.425Z,99.99
2017-11-19T04:21:48.414Z,99.99
2017-11-19T04:22:48.402Z,99.99
2017-11-19T04:23:48.393Z,99.99
2017-11-19T04:24:48.384Z,99.99
2017-11-19T04:25:48.372Z,99.99
2017-11-19T04:26:48.366Z,99.99
2017-11-19T04:27:48.355Z,99.99
2017-11-19T04:28:48.348Z,99.99
2017-11-19T04:29:48.337Z,99.99
2017-11-19T04:30:48.333Z,99.99
2017-11-19T04:31:48.323Z,99.99
2017-11-19T04:32:48.314Z,99.99
2017-11-19T04:33:48.304Z,99.99
2017-11-19T04:34:48.302Z,99.99
2017-11-19T04:35:48.286Z,99.99
2017-11-19T04:36:48.280Z,99.99
2017-11-19T04:37:48.265Z,99.99
2017-11-19T04:38:48.254Z,99.99
2017-11-19T04:39:48.244Z,99.99
2017-11-19T04:40:48.235Z,99.99
2017-11-19T04:41:48.225Z,99.99
2017-11-19T04:42:48.216Z,99.99
2017-11-19T04:43:48.207Z,99.99
2017-11-19T04:44:48.199Z,99.99
2017-11-19T04:45:48.189Z,99.99
2017-11-19T04:46:48.184Z,99.99
2017-11-19T04:47:48.173Z,99.99
2017-11-19T04:48:48.165Z,99.99
2017-11-19T04:49:48.159Z,99.99
2017-11-19T04:50:48.148Z,99.99
2017-11-19T04:51:48.137Z,99.99
2017-11-19T04:52:48.128Z,99.99
2017-11-19T04:53:48.119Z,99.99
2017-11-19T04:54:48.104Z,99.99
2017-11-19T04:55:48.096Z,99.99
2017-11-19T04:56:48.087Z,99.99
2017-11-19T04:57:48.075Z,99.99
2017-11-19T04:58:48.072Z,99.99
2017-11-19T04:59:48.059Z,99.99
2017-11-19T05:00:48.048Z,99.99
2017-11-19T05:01:48.039Z,99.99
2017-11-19T05:02:48.033Z,99.99
2017-11-19T05:03:48.023Z,99.99
2017-11-19T05:04:48.016Z,99.99
2017-11-19T05:05:48.004Z,99.99
2017-11-19T05:06:47.997Z,99.99
2017-11-19T05:07:47.986Z,99.99
2017-11-19T05:08:47.979Z,99.99
2017-11-19T05:09:47.967Z,99.99
2017-11-19T05:10:47.953Z,99.99
2017-11-19T05:11:47.945Z,99.99
2017-11-19T05:12:47.936Z,99.99
2017-11-19T05:13:47.926Z,99.99
2017-11-19T05:14:47.918Z,99.99
2017-11-19T05:15:47.909Z,99.99
2017-11-19T05:16:47.900Z,99.99
2017-11-19T05:17:47.889Z,99.99
2017-11-19T05:18:47.884Z,99.99
2017-11-19T05:19:47.875Z,99.99
2017-11-19T05:20:47.866Z,99.99
2017-11-19T05:21:47.855Z,99.99
2017-11-19T05:22:47.843Z,99.99
2017-11-19T05:23:47.835Z,99.99
2017-11-19T05:24:47.825Z,99.99
2017-11-19T05:25:47.815Z,99.99
2017-11-19T05:26:47.811Z,99.99
2017-11-19T05:27:47.802Z,99.99
2017-11-19T05:28:47.793Z,99.99
2017-11-19T05:29:47.783Z,99.99
2017-11-19T05:30:47.774Z,99.99
2017-11-19T05:31:47.766Z,99.99
2017-11-19T05:32:47.759Z,99.99
2017-11-19T05:33:47.748Z,99.99
2017-11-19T05:34:47.734Z,99.99
2017-11-19T05:35:47.728Z,99.99
2017-11-19T05:36:47.718Z,99.99
2017-11-19T05:37:47.710Z,99.99
2017-11-19T05:38:47.703Z,99.99
2017-11-19T05:39:47.692Z,99.99
2017-11-19T05:40:47.682Z,99.99
2017-11-19T05:41:47.673Z,99.99
2017-11-19T05:42:47.669Z,99.99
2017-11-19T05:43:47.660Z,99.99
2017-11-19T05:44:47.653Z,99.99
2017-11-19T05:45:47.644Z,99.99
2017-11-19T05:46:47.634Z,99.99
2017-11-19T05:47:47.627Z,99.99
2017-11-19T05:48:47.618Z,99.99
2017-11-19T05:49:47.610Z,99.99
2017-11-19T05:50:47.599Z,99.99
2017-11-19T05:51:47.590Z,99.99
2017-11-19T05:52:47.582Z,99.99
2017-11-19T05:53:47.570Z,99.99
2017-11-19T05:54:47.561Z,99.99
2017-11-19T05:55:47.555Z,99.99
2017-11-19T05:56:47.545Z,99.99
2017-11-19T05:57:47.536Z,99.99
2017-11-19T05:58:47.532Z,99.99
2017-11-19T05:59:47.524Z,99.99
2017-11-19T06:00:47.515Z,99.99
2017-11-19T06:01:47.505Z,99.99
2017-11-19T06:02:47.497Z,99.99
2017-11-19T06:03:47.490Z,99.99
2017-11-19T06:04:47.481Z,99.99
2017-11-19T06:05:47.474Z,99.99
2017-11-19T06:06:47.461Z,99.99
2017-11-19T06:07:47.450Z,99.99
2017-11-19T06:08:47.442Z,99.99
2017-11-19T06:09:47.433Z,99.99
2017-11-19T06:10:47.426Z,99.99
2017-11-19T06:11:47.417Z,99.99
2017-11-19T06:12:47.410Z,99.99
2017-11-19T06:13:47.400Z,99.99
2017-11-19T06:14:47.395Z,99.99
2017-11-19T06:15:47.388Z,99.99
2017-11-19T06:16:47.379Z,99.99
2017-11-19T06:17:47.370Z,99.99
2017-11-19T06:18:47.363Z,99.99
2017-11-19T06:19:47.361Z,99.99
2017-11-19T06:20:47.345Z,99.99
2017-11-19T06:21:47.339Z,99.99
2017-11-19T06:22:47.324Z,99.99
2017-11-19T06:23:47.315Z,99.99
2017-11-19T06:24:47.306Z,99.99
2017-11-19T06:25:47.298Z,99.99
2017-11-19T06:26:47.295Z,99.99
2017-11-19T06:27:47.285Z,99.99
2017-11-19T06:28:47.278Z,99.99
2017-11-19T06:29:47.269Z,99.99
2017-11-19T06:30:47.257Z,99.99
2017-11-19T06:31:47.247Z,99.99
2017-11-19T06:32:47.241Z,99.99
2017-11-19T06:33:47.231Z,99.99
2017-11-19T06:34:47.223Z,99.99
2017-11-19T06:35:47.215Z,99.99
2017-11-19T06:36:47.206Z,99.99
2017-11-19T06:37:47.197Z,99.99
2017-11-19T06:38:47.194Z,99.99
2017-11-19T06:39:47.184Z,99.99
2017-11-19T06:40:47.177Z,99.99
2017-11-19T06:41:47.168Z,99.99
2017-11-19T06:42:47.160Z,99.99
2017-11-19T06:43:47.152Z,99.99
2017-11-19T06:44:47.144Z,99.99
2017-11-19T06:45:47.134Z,99.99
2017-11-19T06:46:47.121Z,99.99
2017-11-19T06:47:47.114Z,99.99
2017-11-19T06:48:47.109Z,99.99
2017-11-19T06:49:47.097Z,99.99
2017-11-19T06:50:47.089Z,99.99
2017-11-19T06:51:47.095Z,99.99
2017-11-19T06:52:47.075Z,99.99
2017-11-19T06:53:47.063Z,99.99
2017-11-19T06:54:47.059Z,99.99
2017-11-19T06:55:47.063Z,99.99
2017-11-19T06:56:47.043Z,99.99
2017-11-19T06:57:47.035Z,99.99
2017-11-19T06:58:47.026Z,99.99
2017-11-19T06:59:47.020Z,99.99
2017-11-19T07:00:47.010Z,99.99
2017-11-19T07:01:47.002Z,99.99
2017-11-19T07:02:46.994Z,99.99
2017-11-19T07:03:46.980Z,99.99
2017-11-19T07:04:46.974Z,99.99
2017-11-19T07:05:46.964Z,99.99
2017-11-19T07:06:46.955Z,99.99
2017-11-19T07:07:46.955Z,99.99
2017-11-19T07:08:46.940Z,99.99
2017-11-19T07:09:46.932Z,99.99
2017-11-19T07:10:46.926Z,99.99
2017-11-19T07:11:46.920Z,99.99
2017-11-19T07:12:46.910Z,99.99
2017-11-19T07:13:46.902Z,99.99
2017-11-19T07:14:46.894Z,99.99
2017-11-19T07:15:46.886Z,99.99
2017-11-19T07:16:46.877Z,99.99
2017-11-19T07:17:46.869Z,99.99
2017-11-19T07:18:46.856Z,99.99
2017-11-19T07:19:46.852Z,99.99
2017-11-19T07:20:46.840Z,99.99
2017-11-19T07:21:46.831Z,99.99
2017-11-19T07:22:46.824Z,99.99
2017-11-19T07:23:46.814Z,99.99
2017-11-19T07:24:46.806Z,99.99
2017-11-19T07:25:46.795Z,99.99
2017-11-19T07:26:46.793Z,99.99
2017-11-19T07:27:46.785Z,99.99
2017-11-19T07:28:46.776Z,99.99
2017-11-19T07:29:46.767Z,99.99
2017-11-19T07:30:46.754Z,99.99
2017-11-19T07:31:46.746Z,99.99
2017-11-19T07:32:46.737Z,99.99
2017-11-19T07:33:46.728Z,99.99
2017-11-19T07:34:46.732Z,99.99
2017-11-19T07:35:46.714Z,99.99
2017-11-19T07:36:46.707Z,99.99
2017-11-19T07:37:46.696Z,99.99
2017-11-19T07:38:46.689Z,99.99
2017-11-19T07:39:46.680Z,99.99
2017-11-19T07:40:46.674Z,99.99
2017-11-19T07:41:46.663Z,99.99
2017-11-19T07:42:46.667Z,99.99
2017-11-19T07:43:46.643Z,99.99
2017-11-19T07:44:46.636Z,99.99
2017-11-19T07:45:46.625Z,99.99
2017-11-19T07:46:46.618Z,99.99
2017-11-19T07:47:46.611Z,99.99
2017-11-19T07:48:46.600Z,99.99
2017-11-19T07:49:46.592Z,99.99
2017-11-19T07:50:46.588Z,99.99
2017-11-19T07:51:46.580Z,99.99
2017-11-19T07:52:46.573Z,99.99
2017-11-19T07:53:46.563Z,99.99
2017-11-19T07:54:46.555Z,99.99
2017-11-19T07:55:46.546Z,99.99
2017-11-19T07:56:46.539Z,99.99
2017-11-19T07:57:46.529Z,99.99
2017-11-19T07:58:46.518Z,99.99
2017-11-19T07:59:46.511Z,99.99
2017-11-19T08:00:46.503Z,99.99
2017-11-19T08:01:46.501Z,99.99
2017-11-19T08:02:46.487Z,99.99
2017-11-19T08:03:46.477Z,99.99
2017-11-19T08:04:46.472Z,99.99
2017-11-19T08:05:46.461Z,99.99
2017-11-19T08:06:46.458Z,99.99
2017-11-19T08:07:46.451Z,99.99
2017-11-19T08:08:46.444Z,99.99
2017-11-19T08:09:46.435Z,99.99
2017-11-19T08:10:46.428Z,99.99
2017-11-19T08:11:46.420Z,99.99
2017-11-19T08:12:46.412Z,99.99
2017-11-19T08:13:46.403Z,99.99
2017-11-19T08:14:46.392Z,99.99
2017-11-19T08:15:46.385Z,99.99
2017-11-19T08:16:46.377Z,99.99
2017-11-19T08:17:46.369Z,99.99
2017-11-19T08:18:46.360Z,99.99
2017-11-19T08:19:46.353Z,99.99
2017-11-19T08:20:46.345Z,99.99
2017-11-19T08:21:46.338Z,99.99
2017-11-19T08:22:46.334Z,99.99
2017-11-19T08:23:46.326Z,99.99
2017-11-19T08:24:46.320Z,99.99
2017-11-19T08:25:46.311Z,99.99
2017-11-19T08:26:46.304Z,99.99
2017-11-19T08:27:46.298Z,99.99
2017-11-19T08:28:46.289Z,99.99
2017-11-19T08:29:46.281Z,99.99
2017-11-19T08:30:46.271Z,99.99
2017-11-19T08:31:46.263Z,99.99
2017-11-19T08:32:46.256Z,99.99
2017-11-19T08:33:46.249Z,99.99
2017-11-19T08:34:46.242Z,99.99
2017-11-19T08:35:46.235Z,99.99
2017-11-19T08:36:46.231Z,99.99
2017-11-19T08:37:46.221Z,99.99
2017-11-19T08:38:46.217Z,99.99
2017-11-19T08:39:46.210Z,99.99
2017-11-19T08:40:46.204Z,99.99
2017-11-19T08:41:46.198Z,99.99
2017-11-19T08:42:46.190Z,99.99
2017-11-19T08:43:46.184Z,99.99
2017-11-19T08:44:46.183Z,99.99
2017-11-19T08:45:46.168Z,99.99
2017-11-19T08:46:46.157Z,99.99
2017-11-19T08:47:46.151Z,99.99
2017-11-19T08:48:46.145Z,99.36
2017-11-19T08:49:46.137Z,98.88
2017-11-19T08:50:46.132Z,98.97
2017-11-19T08:51:46.123Z,98.69
2017-11-19T08:52:46.123Z,98.27
2017-11-19T08:53:46.110Z,98.27
2017-11-19T08:54:46.110Z,98.08
2017-11-19T08:55:46.103Z,97.51
2017-11-19T08:56:46.098Z,96.27
2017-11-19T08:57:46.090Z,96.08
2017-11-19T08:58:46.085Z,94.17
2017-11-19T08:59:46.079Z,92.36
2017-11-19T09:00:46.073Z,90.02
2017-11-19T09:01:46.067Z,87.20
2017-11-19T09:02:46.057Z,84.19
2017-11-19T09:03:46.054Z,82.31
2017-11-19T09:04:46.051Z,80.35
2017-11-19T09:05:46.045Z,78.76
2017-11-19T09:06:46.041Z,76.90
2017-11-19T09:07:46.041Z,75.83
2017-11-19T09:08:46.036Z,74.33
2017-11-19T09:09:46.035Z,72.42
2017-11-19T09:10:46.034Z,72.07
2017-11-19T09:11:46.039Z,70.35
2017-11-19T09:12:46.029Z,69.42
2017-11-19T09:13:46.036Z,68.30
2017-11-19T09:14:46.029Z,67.73
2017-11-19T09:15:46.028Z,66.77
2017-11-19T09:16:46.028Z,65.91
2017-11-19T09:17:46.026Z,65.17
2017-11-19T09:18:46.022Z,64.12
2017-11-19T09:19:46.022Z,63.42
2017-11-19T09:20:46.023Z,63.54
2017-11-19T09:21:46.023Z,63.19
2017-11-19T09:22:46.025Z,62.93
2017-11-19T09:23:46.025Z,61.78
2017-11-19T09:24:46.039Z,61.36
2017-11-19T09:25:46.046Z,61.17
2017-11-19T09:26:46.034Z,60.78
2017-11-19T09:27:46.037Z,60.34
2017-11-19T09:28:46.041Z,59.89
2017-11-19T09:29:46.041Z,60.75
2017-11-19T09:30:46.045Z,60.78
2017-11-19T09:31:46.047Z,59.86
2017-11-19T09:32:46.050Z,60.53
2017-11-19T09:33:46.052Z,58.87
2017-11-19T09:34:46.051Z,59.57
2017-11-19T09:35:46.053Z,59.31
2017-11-19T09:36:46.056Z,59.16
2017-11-19T09:37:46.059Z,59.16
2017-11-19T09:38:46.066Z,60.25
2017-11-19T09:39:46.069Z,60.73
2017-11-19T09:40:46.073Z,62.43
2017-11-19T09:41:46.073Z,63.64
2017-11-19T09:42:46.073Z,65.49
2017-11-19T09:43:46.077Z,66.06
2017-11-19T09:44:46.080Z,64.95
2017-11-19T09:45:46.081Z,63.83
2017-11-19T09:46:46.084Z,62.61
2017-11-19T09:47:46.088Z,61.78
2017-11-19T09:48:46.090Z,61.04
2017-11-19T09:49:46.117Z,59.09
2017-11-19T09:50:46.101Z,59.66
2017-11-19T09:51:46.103Z,58.28
2017-11-19T09:52:46.106Z,58.12
2017-11-19T09:53:46.109Z,56.77
2017-11-19T09:54:46.114Z,56.03
2017-11-19T09:55:46.116Z,55.35
2017-11-19T09:56:46.123Z,55.55
2017-11-19T09:57:46.122Z,54.49
2017-11-19T09:58:46.121Z,54.56
2017-11-19T09:59:46.127Z,54.49
2017-11-19T10:00:46.133Z,54.20
2017-11-19T10:01:46.134Z,53.50
2017-11-19T10:02:46.138Z,53.45
2017-11-19T10:03:46.145Z,53.02
2017-11-19T10:04:46.148Z,53.80
2017-11-19T10:05:46.152Z,55.35
2017-11-19T10:06:46.160Z,56.70
2017-11-19T10:07:46.170Z,57.78
2017-11-19T10:08:46.168Z,58.13
2017-11-19T10:09:46.173Z,58.48
2017-11-19T10:10:46.178Z,58.00
2017-11-19T10:11:46.183Z,58.64
2017-11-19T10:12:46.186Z,59.36
2017-11-19T10:13:46.189Z,59.64
2017-11-19T10:14:46.188Z,60.96
2017-11-19T10:15:46.193Z,61.53
2017-11-19T10:16:46.197Z,62.36
2017-11-19T10:17:46.201Z,63.67
2017-11-19T10:18:46.204Z,65.30
2017-11-19T10:19:46.207Z,65.68
2017-11-19T10:20:46.211Z,66.06
2017-11-19T10:21:46.213Z,66.45
2017-11-19T10:22:46.218Z,66.32
2017-11-19T10:23:46.223Z,65.08
2017-11-19T10:24:46.227Z,65.05
2017-11-19T10:25:46.228Z,66.25
2017-11-19T10:26:46.229Z,66.83
2017-11-19T10:27:46.232Z,67.05
2017-11-19T10:28:46.239Z,67.94
2017-11-19T10:29:46.238Z,68.30
2017-11-19T10:30:46.243Z,67.38
2017-11-19T10:31:46.237Z,66.49
2017-11-19T10:32:46.240Z,65.08
2017-11-19T10:33:46.243Z,64.05
2017-11-19T10:34:46.251Z,62.61
2017-11-19T10:35:46.247Z,61.58
2017-11-19T10:36:46.247Z,60.78
2017-11-19T10:37:46.251Z,60.98
2017-11-19T10:38:46.257Z,60.95
2017-11-19T10:39:46.260Z,60.56
2017-11-19T10:40:46.263Z,60.08
2017-11-19T10:41:46.264Z,60.72
2017-11-19T10:42:46.264Z,61.66
2017-11-19T10:43:46.265Z,62.52
2017-11-19T10:44:46.270Z,62.74
2017-11-19T10:45:46.271Z,61.84
2017-11-19T10:46:46.284Z,61.58
2017-11-19T10:47:46.284Z,60.53
2017-11-19T10:48:46.284Z,60.46
2017-11-19T10:49:46.286Z,58.99
2017-11-19T10:50:46.290Z,59.44
2017-11-19T10:51:46.293Z,60.25
2017-11-19T10:52:46.298Z,60.57
2017-11-19T10:53:46.300Z,61.50
2017-11-19T10:54:46.298Z,63.13
2017-11-19T10:55:46.303Z,65.42
2017-11-19T10:56:46.310Z,66.06
2017-11-19T10:57:46.309Z,66.16
2017-11-19T10:58:46.311Z,67.27
2017-11-19T10:59:46.318Z,68.27
2017-11-19T11:00:46.319Z,68.11
2017-11-19T11:01:46.318Z,68.36
2017-11-19T11:02:46.326Z,68.13
2017-11-19T11:03:46.326Z,68.87
2017-11-19T11:04:46.329Z,69.29
2017-11-19T11:05:46.331Z,69.50
2017-11-19T11:06:46.332Z,71.22
2017-11-19T11:07:46.335Z,71.99
2017-11-19T11:08:46.336Z,72.14
2017-11-19T11:09:46.339Z,73.19
2017-11-19T11:10:46.336Z,73.86
2017-11-19T11:11:46.336Z,74.49
2017-11-19T11:12:46.337Z,75.54
2017-11-19T11:13:46.337Z,76.21
2017-11-19T11:14:46.345Z,77.26
2017-11-19T11:15:46.349Z,77.61
2017-11-19T11:16:46.343Z,78.37
2017-11-19T11:17:46.340Z,78.75
2017-11-19T11:18:46.344Z,78.91
2017-11-19T11:19:46.343Z,78.91
2017-11-19T11:20:46.346Z,79.48
2017-11-19T11:21:46.344Z,79.77
2017-11-19T11:22:46.344Z,80.43
2017-11-19T11:23:46.343Z,80.72
2017-11-19T11:24:46.343Z,80.43
2017-11-19T11:25:46.341Z,79.38
2017-11-19T11:26:46.336Z,79.77
2017-11-19T11:27:46.335Z,79.67
2017-11-19T11:28:46.335Z,80.39
2017-11-19T11:29:46.333Z,80.62
2017-11-19T11:30:46.332Z,80.91
2017-11-19T11:31:46.331Z,81.73
2017-11-19T11:32:46.330Z,80.77
2017-11-19T11:33:46.326Z,80.68
2017-11-19T11:34:46.328Z,81.82
2017-11-19T11:35:46.328Z,81.35
2017-11-19T11:36:46.325Z,82.30
2017-11-19T11:37:46.324Z,82.49
2017-11-19T11:38:46.321Z,82.40
2017-11-19T11:39:46.340Z,81.92
2017-11-19T11:40:46.320Z,82.01
2017-11-19T11:41:46.314Z,82.34
2017-11-19T11:42:46.309Z,82.24
2017-11-19T11:43:46.314Z,82.30
2017-11-19T11:44:46.304Z,82.30
2017-11-19T11:45:46.300Z,82.30
2017-11-19T11:46:46.304Z,81.67
2017-11-19T11:47:46.304Z,82.43
2017-11-19T11:48:46.299Z,81.90
2017-11-19T11:49:46.297Z,81.81
2017-11-19T11:50:46.295Z,80.85
2017-11-19T11:51:46.293Z,80.85
2017-11-19T11:52:46.285Z,80.76
2017-11-19T11:53:46.282Z,80.66
2017-11-19T11:54:46.280Z,80.76
2017-11-19T11:55:46.281Z,79.94
2017-11-19T11:56:46.277Z,80.32
2017-11-19T11:57:46.273Z,79.52
2017-11-19T11:58:46.274Z,79.61
2017-11-19T11:59:46.272Z,78.75
2017-11-19T12:00:46.271Z,78.85
2017-11-19T12:01:46.268Z,78.56
2017-11-19T12:02:46.274Z,78.89
2017-11-19T12:03:46.265Z,78.99
2017-11-19T12:04:46.261Z,79.08
2017-11-19T12:05:46.260Z,79.27
2017-11-19T12:06:46.253Z,78.99
2017-11-19T12:07:46.252Z,78.99
2017-11-19T12:08:46.250Z,78.89
2017-11-19T12:09:46.245Z,79.04
2017-11-19T12:10:46.244Z,78.75
2017-11-19T12:11:46.242Z,78.94
2017-11-19T12:12:46.241Z,79.80
2017-11-19T12:13:46.239Z,79.57
2017-11-19T12:14:46.240Z,79.77
2017-11-19T12:15:46.237Z,79.57
2017-11-19T12:16:46.236Z,79.57
2017-11-19T12:17:46.238Z,79.77
2017-11-19T12:18:46.230Z,80.33
2017-11-19T12:19:46.228Z,80.68
2017-11-19T12:20:46.227Z,81.63
2017-11-19T12:21:46.231Z,82.15
2017-11-19T12:22:46.217Z,82.15
2017-11-19T12:23:46.213Z,82.01
2017-11-19T12:24:46.213Z,82.40
2017-11-19T12:25:46.207Z,82.59
2017-11-19T12:26:46.207Z,82.87
2017-11-19T12:27:46.204Z,82.63
2017-11-19T12:28:46.201Z,82.68
2017-11-19T12:29:46.197Z,82.49
2017-11-19T12:30:46.198Z,82.72
2017-11-19T12:31:46.196Z,83.48
2017-11-19T12:32:46.193Z,83.39
2017-11-19T12:33:46.190Z,82.72
2017-11-19T12:34:46.187Z,83.01
2017-11-19T12:35:46.186Z,82.53
2017-11-19T12:36:46.182Z,82.24
2017-11-19T12:37:46.179Z,82.72
2017-11-19T12:38:46.172Z,82.72
2017-11-19T12:39:46.169Z,82.53
2017-11-19T12:40:46.167Z,83.01
2017-11-19T12:41:46.164Z,82.43
2017-11-19T12:42:46.161Z,81.86
2017-11-19T12:43:46.157Z,81.71
2017-11-19T12:44:46.154Z,81.77
2017-11-19T12:45:46.151Z,82.06
2017-11-19T12:46:46.153Z,81.10
2017-11-19T12:47:46.150Z,80.91
2017-11-19T12:48:46.147Z,80.81
2017-11-19T12:49:46.143Z,80.05
2017-11-19T12:50:46.141Z,79.86
2017-11-19T12:51:46.140Z,80.62
2017-11-19T12:52:46.138Z,80.91